Moron de la Frontera, Spain

9:07 AM CEST on March 26, 2017 (GMT +0200)
Moron Air Base | | Change Station

Elev 289 ft 37.15 °N, 5.62 °W | Updated 7 minutes ago

Partly Cloudy
Partly Cloudy
46 °F
Feels Like 46 °F
N
2
Wind Variable Wind from SE

Today
High -- | Low -- °F
--% Chance of Precip.
Yesterday
High -- | Low -- °F
Precip. -- in
Pressure 29.95 in
Visibility 6.2 miles
Clouds Few 2700 ft
Dew Point 45 °F
Humidity 93%
Rainfall 0.00 in
Snow Depth Not available.
8:16 AM 8:39 PM
Waning Crescent, 4% visible
METAR LEMO 260700Z 13002KT 9999 FEW027TCU 08/07 Q1014 NOSIG
Pressure 29.95 in
Visibility 6.2 miles
Clouds Few 2700 ft
Dew Point 45 °F
Humidity 93%
Rainfall 0.00 in
Snow Depth Not available.
8:16 AM 8:39 PM
Waning Crescent, 4% visible
METAR LEMO 260700Z 13002KT 9999 FEW027TCU 08/07 Q1014 NOSIG

Get Severe Weather Alerts

Thanks for signing up!

Be on the lookout for a verification email in your inbox.

You'll start receiving the daily forecast at 8 AM.

×

10-Day Weather Forecast

×

Almanac

Astronomy

Mar. 26, 2017 Rise Set
Actual Time
Civil Twilight
Nautical Twilight
Astronomical Twilight
Moon
Length of Visible Light
Length of Day
Tomorrow will be .
, % of the Moon is Illuminated

Today's Extremes

Country Highs Country Lows

Community

WunderPhotos

Upload Photos

1,962,540 photos uploaded!

WunderBlog® & News

Nearby

Air Quality

  Air Quality AQ Index Pollutant
Not available.

Snow Depth

Station Depth Elevation

Earthquake Activity

City Distance Mag. Time & Date
Minimum magnitude displayed is 2.5.

Earthquake Activity

City Distance Mag. Time & Date
Minimum magnitude displayed is 2.5.

Coastal Water Temperatures

Place Temperature

Stations

Nearby Weather Stations

Station Location Temp. Windchill Dew Point Humidity Wind Precip. Elev Updated Type